createdAt,value
2022-12-16T00:01:37.097Z,13.23
2022-12-16T00:04:05.768Z,14.60
2022-12-16T00:06:35.371Z,14.07
2022-12-16T00:09:05.297Z,13.60
2022-12-16T00:11:33.513Z,14.53
2022-12-16T00:14:01.969Z,14.33
2022-12-16T00:16:30.507Z,12.23
2022-12-16T00:18:58.865Z,13.23
2022-12-16T00:21:29.769Z,14.90
2022-12-16T00:23:58.527Z,13.63
2022-12-16T00:26:29.820Z,15.20
2022-12-16T00:28:58.436Z,13.97
2022-12-16T00:31:27.561Z,13.87
2022-12-16T00:33:57.882Z,14.30
2022-12-16T00:36:26.083Z,12.73
2022-12-16T00:38:54.499Z,13.10
2022-12-16T00:41:23.010Z,12.60
2022-12-16T00:43:52.531Z,13.93
2022-12-16T00:46:20.757Z,13.07
2022-12-16T00:48:48.965Z,13.30
2022-12-16T00:51:17.258Z,12.60
2022-12-16T00:53:45.467Z,13.20
2022-12-16T00:56:15.756Z,12.80
2022-12-16T00:58:44.048Z,13.43
2022-12-16T01:01:13.731Z,13.07
2022-12-16T01:03:42.441Z,13.00
2022-12-16T01:06:12.761Z,12.07
2022-12-16T01:08:48.540Z,13.47
2022-12-16T01:11:18.058Z,12.43
2022-12-16T01:13:47.785Z,12.37
2022-12-16T01:16:17.436Z,12.47
2022-12-16T01:18:45.678Z,13.73
2022-12-16T01:21:16.054Z,12.80
2022-12-16T01:23:44.320Z,12.37
2022-12-16T01:26:17.832Z,12.33
2022-12-16T01:28:46.288Z,12.20
2022-12-16T01:31:17.009Z,12.33
2022-12-16T01:33:45.640Z,12.33
2022-12-16T01:36:14.180Z,11.87
2022-12-16T01:38:45.206Z,12.20
2022-12-16T01:41:15.038Z,12.93
2022-12-16T01:43:44.468Z,11.90
2022-12-16T01:46:21.954Z,11.63
2022-12-16T01:48:54.589Z,12.17
2022-12-16T01:51:26.839Z,11.40
2022-12-16T01:54:02.225Z,10.57
2022-12-16T01:56:32.966Z,11.60
2022-12-16T01:59:01.829Z,12.30
2022-12-16T02:01:31.578Z,11.67
2022-12-16T02:04:03.336Z,11.87
2022-12-16T02:06:32.231Z,12.77
2022-12-16T02:09:02.085Z,12.03
2022-12-16T02:11:47.108Z,11.00
2022-12-16T02:14:57.768Z,12.13
2022-12-16T02:17:35.272Z,10.67
2022-12-16T02:20:32.425Z,11.33
2022-12-16T02:23:22.944Z,10.47
2022-12-16T02:26:29.934Z,11.70
2022-12-16T02:29:33.633Z,10.80
2022-12-16T02:32:14.327Z,12.20
2022-12-16T02:34:50.576Z,11.47
2022-12-16T02:37:31.239Z,11.97
2022-12-16T02:40:03.029Z,11.27
2022-12-16T02:42:33.036Z,11.20
2022-12-16T02:45:05.362Z,12.73
2022-12-16T02:47:34.999Z,11.93
2022-12-16T02:50:03.572Z,11.53
2022-12-16T02:52:35.841Z,12.00
2022-12-16T02:55:10.174Z,13.03
2022-12-16T02:58:01.861Z,11.60
2022-12-16T03:00:35.894Z,12.03
2022-12-16T03:03:09.991Z,11.43
2022-12-16T03:05:43.300Z,11.40
2022-12-16T03:08:15.178Z,11.17
2022-12-16T03:10:47.433Z,12.40
2022-12-16T03:13:18.409Z,12.10
2022-12-16T03:15:48.580Z,11.90
2022-12-16T03:18:19.816Z,12.67
2022-12-16T03:20:53.129Z,12.80
2022-12-16T03:23:29.639Z,12.77
2022-12-16T03:26:04.841Z,12.17
2022-12-16T03:28:43.590Z,11.30
2022-12-16T03:31:21.005Z,11.87
2022-12-16T03:33:57.562Z,11.83
2022-12-16T03:36:27.318Z,13.87
2022-12-16T03:38:57.256Z,11.77
2022-12-16T03:41:26.769Z,12.73
2022-12-16T03:43:55.164Z,12.23
2022-12-16T03:46:23.550Z,12.27
2022-12-16T03:48:53.981Z,13.17
2022-12-16T03:51:22.374Z,12.60
2022-12-16T03:56:23.386Z,13.57
2022-12-16T03:58:51.521Z,13.33
2022-12-16T04:01:19.811Z,13.37
2022-12-16T04:03:48.124Z,12.87
2022-12-16T04:06:18.791Z,12.80
2022-12-16T04:08:47.675Z,12.73
2022-12-16T04:11:34.074Z,13.60
2022-12-16T04:14:19.773Z,12.53
2022-12-16T04:17:05.681Z,12.73
2022-12-16T04:19:55.165Z,12.43
2022-12-16T04:22:45.197Z,13.43
2022-12-16T04:25:17.739Z,13.83
2022-12-16T04:27:46.797Z,13.87
2022-12-16T04:30:22.124Z,14.90
2022-12-16T04:33:12.383Z,11.87
2022-12-16T04:35:58.320Z,13.07
2022-12-16T04:38:45.573Z,13.83
2022-12-16T04:41:31.801Z,14.57
2022-12-16T04:44:18.170Z,12.60
2022-12-16T04:47:04.134Z,12.87
2022-12-16T04:49:49.826Z,12.47
2022-12-16T04:52:36.559Z,13.17
2022-12-16T04:55:24.910Z,12.80
2022-12-16T04:58:12.289Z,13.23
2022-12-16T05:01:00.381Z,12.10
2022-12-16T05:03:43.143Z,12.20
2022-12-16T05:06:28.441Z,13.80
2022-12-16T05:09:22.299Z,14.47
2022-12-16T05:12:09.750Z,14.90
2022-12-16T05:14:55.119Z,13.27
2022-12-16T05:17:55.468Z,14.23
2022-12-16T05:20:40.875Z,15.30
2022-12-16T05:23:26.804Z,13.80
2022-12-16T05:26:12.394Z,13.53
2022-12-16T05:28:59.239Z,12.13
2022-12-16T05:31:44.556Z,14.77
2022-12-16T05:34:30.070Z,13.83
2022-12-16T05:37:15.605Z,14.50
2022-12-16T05:40:00.912Z,14.13
2022-12-16T05:42:46.715Z,13.30
2022-12-16T05:45:33.122Z,13.93
2022-12-16T05:48:18.872Z,13.87
2022-12-16T05:51:04.271Z,14.77
2022-12-16T05:53:49.828Z,13.63
2022-12-16T05:56:35.601Z,14.60
2022-12-16T05:59:21.419Z,14.60
2022-12-16T06:02:08.549Z,13.40
2022-12-16T06:04:54.250Z,14.00
2022-12-16T06:07:39.764Z,13.57
2022-12-16T06:10:25.857Z,14.13
2022-12-16T06:13:11.607Z,13.23
2022-12-16T06:15:57.475Z,13.63
2022-12-16T06:18:44.578Z,13.67
2022-12-16T06:21:29.986Z,14.07
2022-12-16T06:24:15.533Z,14.07
2022-12-16T06:27:01.338Z,14.93
2022-12-16T06:29:46.690Z,14.77
2022-12-16T06:32:32.424Z,16.97
2022-12-16T06:35:19.414Z,15.10
2022-12-16T06:38:06.084Z,16.33
2022-12-16T06:40:52.514Z,14.87
2022-12-16T06:43:40.842Z,15.73
2022-12-16T06:46:26.324Z,14.07
2022-12-16T06:49:11.299Z,14.53
2022-12-16T06:51:58.137Z,14.33
2022-12-16T06:54:43.496Z,15.33
2022-12-16T06:57:29.235Z,14.03
2022-12-16T07:00:14.581Z,14.53
2022-12-16T07:03:00.226Z,12.50
2022-12-16T07:05:45.785Z,15.13
2022-12-16T07:08:32.477Z,15.93
2022-12-16T07:11:18.163Z,15.77
2022-12-16T07:14:03.998Z,15.60
2022-12-16T07:16:49.481Z,13.53
2022-12-16T07:19:35.487Z,14.23
2022-12-16T07:22:20.114Z,14.87
2022-12-16T07:25:07.208Z,14.47
2022-12-16T07:27:52.514Z,14.23
2022-12-16T07:30:37.892Z,16.23
2022-12-16T07:33:23.533Z,14.93
2022-12-16T07:36:08.739Z,17.67
2022-12-16T07:38:54.269Z,16.23
2022-12-16T07:41:41.399Z,15.63
2022-12-16T07:44:26.942Z,19.17
2022-12-16T07:47:12.313Z,18.70
2022-12-16T07:49:58.308Z,18.13
2022-12-16T07:52:43.712Z,24.03
2022-12-16T07:55:29.402Z,21.27
2022-12-16T07:58:15.564Z,19.90
2022-12-16T08:01:06.289Z,20.27
2022-12-16T08:03:54.645Z,19.77
2022-12-16T08:06:41.960Z,19.20
2022-12-16T08:09:27.371Z,19.57
2022-12-16T08:12:15.438Z,20.60
2022-12-16T08:15:02.044Z,19.70
2022-12-16T08:17:47.611Z,18.60
2022-12-16T08:20:33.252Z,17.43
2022-12-16T08:23:15.405Z,17.13
2022-12-16T08:26:01.174Z,18.53
2022-12-16T08:28:46.560Z,19.93
2022-12-16T08:31:33.488Z,21.63
2022-12-16T08:34:19.006Z,19.23
2022-12-16T08:37:03.559Z,19.63
2022-12-16T08:40:04.870Z,18.67
2022-12-16T08:42:55.012Z,18.97
2022-12-16T08:45:53.766Z,19.43
2022-12-16T08:48:43.234Z,23.87
2022-12-16T08:51:29.130Z,32.23
2022-12-16T08:54:11.153Z,32.73
2022-12-16T08:56:56.843Z,24.53
2022-12-16T08:59:42.602Z,25.27
2022-12-16T09:02:29.719Z,24.50
2022-12-16T09:05:16.898Z,22.77
2022-12-16T09:08:02.396Z,19.53
2022-12-16T09:10:48.190Z,18.43
2022-12-16T09:13:35.303Z,19.40
2022-12-16T09:16:21.475Z,18.20
2022-12-16T09:19:07.363Z,17.13
2022-12-16T09:21:54.695Z,18.17
2022-12-16T09:24:48.781Z,18.50
2022-12-16T09:27:34.370Z,18.87
2022-12-16T09:30:20.133Z,18.07
2022-12-16T09:33:05.522Z,18.53
2022-12-16T09:35:50.961Z,18.90
2022-12-16T09:38:38.253Z,17.67
2022-12-16T09:41:49.618Z,17.73
2022-12-16T09:44:44.045Z,17.37
2022-12-16T09:47:41.432Z,21.53
2022-12-16T09:50:37.923Z,20.30
2022-12-16T09:53:28.033Z,22.33
2022-12-16T09:56:16.173Z,20.80
2022-12-16T09:59:08.002Z,21.50
2022-12-16T10:02:07.636Z,20.63
2022-12-16T10:04:54.569Z,20.40
2022-12-16T10:07:42.011Z,20.80
2022-12-16T10:10:38.960Z,21.83
2022-12-16T10:13:35.073Z,22.93
2022-12-16T10:16:42.764Z,24.57
2022-12-16T10:19:38.268Z,24.60
2022-12-16T10:22:30.965Z,22.00
2022-12-16T10:25:25.537Z,21.60
2022-12-16T10:28:13.962Z,22.03
2022-12-16T10:31:01.163Z,21.37
2022-12-16T10:33:48.678Z,20.50
2022-12-16T10:36:39.092Z,20.37
2022-12-16T10:39:35.427Z,18.30
2022-12-16T10:42:21.884Z,19.90
2022-12-16T10:45:13.346Z,19.60
2022-12-16T10:48:00.737Z,20.67
2022-12-16T10:50:46.687Z,19.40
2022-12-16T10:53:34.571Z,21.60
2022-12-16T10:56:33.114Z,20.30
2022-12-16T10:59:23.189Z,20.27
2022-12-16T11:02:16.511Z,20.03
2022-12-16T11:05:05.134Z,19.73
2022-12-16T11:07:53.120Z,20.57
2022-12-16T11:10:52.124Z,21.57
2022-12-16T11:13:43.898Z,22.83
2022-12-16T11:16:33.407Z,21.80
2022-12-16T11:19:19.010Z,21.13
2022-12-16T11:22:20.834Z,20.03
2022-12-16T11:25:23.906Z,23.17
2022-12-16T11:28:22.420Z,24.60
2022-12-16T11:31:14.015Z,22.07
2022-12-16T11:34:00.705Z,27.43
2022-12-16T11:36:46.235Z,25.17
2022-12-16T11:39:36.243Z,24.17
2022-12-16T11:42:24.378Z,24.00
2022-12-16T11:45:14.534Z,23.90
2022-12-16T11:48:03.951Z,23.13
2022-12-16T11:50:52.678Z,22.97
2022-12-16T11:53:49.437Z,22.80
2022-12-16T11:56:40.936Z,21.97
2022-12-16T11:59:37.732Z,22.83
2022-12-16T12:02:31.321Z,23.50
2022-12-16T12:05:16.783Z,22.63
2022-12-16T12:08:13.075Z,23.13
2022-12-16T12:11:10.294Z,22.97
2022-12-16T12:14:16.243Z,24.47
2022-12-16T12:17:17.169Z,23.93
2022-12-16T12:20:14.755Z,23.23
2022-12-16T12:23:02.759Z,22.27
2022-12-16T12:25:56.517Z,23.43
2022-12-16T12:28:57.190Z,22.57
2022-12-16T12:31:55.202Z,22.93
2022-12-16T12:34:48.720Z,22.67
2022-12-16T12:37:42.026Z,22.33
2022-12-16T12:40:42.237Z,21.70
2022-12-16T12:43:54.413Z,22.50
2022-12-16T12:46:47.284Z,21.33
2022-12-16T12:49:41.100Z,21.83
2022-12-16T12:52:38.238Z,21.67
2022-12-16T12:55:31.191Z,22.47
2022-12-16T12:58:19.131Z,23.60
2022-12-16T13:01:11.031Z,26.20
2022-12-16T13:04:01.461Z,26.13
2022-12-16T13:06:48.955Z,25.13
2022-12-16T13:09:47.423Z,23.53
2022-12-16T13:12:43.653Z,24.97
2022-12-16T13:15:51.371Z,24.50
2022-12-16T13:18:47.389Z,24.00
2022-12-16T13:22:06.364Z,23.73
2022-12-16T13:25:04.016Z,25.67
2022-12-16T13:28:05.934Z,24.73
2022-12-16T13:30:53.191Z,21.70
2022-12-16T13:33:45.703Z,25.13
2022-12-16T13:36:34.232Z,24.80
2022-12-16T13:39:41.926Z,23.03
2022-12-16T13:42:52.220Z,24.03
2022-12-16T13:45:53.108Z,22.67
2022-12-16T13:48:55.124Z,24.73
2022-12-16T13:52:28.199Z,23.07
2022-12-16T13:55:33.083Z,24.87
2022-12-16T13:58:25.055Z,27.07
2022-12-16T14:01:24.929Z,24.33
2022-12-16T14:04:11.542Z,25.00
2022-12-16T14:07:00.731Z,24.23
2022-12-16T14:09:51.837Z,23.00
2022-12-16T14:13:07.250Z,23.43
2022-12-16T14:16:06.353Z,22.97
2022-12-16T14:19:01.968Z,22.03
2022-12-16T14:21:53.418Z,23.10
2022-12-16T14:24:44.609Z,22.27
2022-12-16T14:27:35.945Z,22.57
2022-12-16T14:30:36.180Z,22.57
2022-12-16T14:33:41.437Z,22.90
2022-12-16T14:36:41.841Z,22.90
2022-12-16T14:39:30.548Z,22.13
2022-12-16T14:42:16.449Z,22.57
2022-12-16T14:45:04.239Z,21.93
2022-12-16T14:47:51.277Z,22.80
2022-12-16T14:50:44.721Z,23.83
2022-12-16T14:53:34.147Z,21.60
2022-12-16T14:56:37.038Z,21.17
2022-12-16T14:59:27.939Z,21.30
2022-12-16T15:02:16.419Z,21.60
2022-12-16T15:05:19.359Z,22.47
2022-12-16T15:08:05.135Z,21.43
2022-12-16T15:10:52.854Z,19.77
2022-12-16T15:13:40.348Z,20.10
2022-12-16T15:16:33.594Z,21.53
2022-12-16T15:19:20.367Z,21.90
2022-12-16T15:22:07.668Z,20.73
2022-12-16T15:24:56.986Z,20.27
2022-12-16T15:27:44.304Z,21.53
2022-12-16T15:30:53.197Z,21.67
2022-12-16T15:33:41.463Z,20.13
2022-12-16T15:36:52.721Z,21.60
2022-12-16T15:39:43.103Z,21.10
2022-12-16T15:42:40.152Z,21.50
2022-12-16T15:45:36.341Z,23.20
2022-12-16T15:48:31.730Z,20.43
2022-12-16T15:51:17.156Z,22.50
2022-12-16T15:54:02.792Z,23.73
2022-12-16T15:57:02.569Z,22.73
2022-12-16T16:00:04.825Z,22.43
2022-12-16T16:02:50.699Z,22.77
2022-12-16T16:05:39.370Z,22.97
2022-12-16T16:08:25.271Z,23.33
2022-12-16T16:11:11.241Z,22.37
2022-12-16T16:14:05.110Z,22.47
2022-12-16T16:16:53.322Z,21.57
2022-12-16T16:19:42.591Z,22.70
2022-12-16T16:22:30.711Z,23.63
2022-12-16T16:25:16.134Z,23.40
2022-12-16T16:28:02.196Z,22.07
2022-12-16T16:30:49.112Z,23.30
2022-12-16T16:33:34.752Z,25.07
2022-12-16T16:36:23.072Z,24.63
2022-12-16T16:39:08.630Z,24.00
2022-12-16T16:41:53.999Z,25.00
2022-12-16T16:44:39.849Z,24.87
2022-12-16T16:47:34.857Z,22.77
2022-12-16T16:50:23.201Z,24.33
2022-12-16T16:53:08.881Z,25.17
2022-12-16T16:56:05.995Z,24.10
2022-12-16T16:58:53.328Z,24.80
2022-12-16T17:01:39.172Z,26.20
2022-12-16T17:04:26.226Z,25.30
2022-12-16T17:07:11.689Z,24.93
2022-12-16T17:09:57.333Z,25.73
2022-12-16T17:12:44.604Z,25.90
2022-12-16T17:15:41.097Z,25.93
2022-12-16T17:18:27.282Z,24.33
2022-12-16T17:21:14.001Z,27.43
2022-12-16T17:24:05.212Z,27.47
2022-12-16T17:26:50.829Z,27.57
2022-12-16T17:29:39.379Z,25.10
2022-12-16T17:32:25.675Z,27.20
2022-12-16T17:35:11.422Z,28.90
2022-12-16T17:37:58.349Z,25.93
2022-12-16T17:40:44.654Z,26.50
2022-12-16T17:43:30.847Z,27.67
2022-12-16T17:46:18.518Z,29.20
2022-12-16T17:49:04.322Z,28.73
2022-12-16T17:51:49.659Z,29.97
2022-12-16T17:54:37.997Z,28.67
2022-12-16T17:57:23.661Z,28.70
2022-12-16T18:00:09.022Z,29.30
2022-12-16T18:03:03.106Z,30.40
2022-12-16T18:05:48.762Z,30.57
2022-12-16T18:08:34.401Z,30.23
2022-12-16T18:11:21.350Z,29.47
2022-12-16T18:14:07.205Z,29.87
2022-12-16T18:16:53.106Z,30.40
2022-12-16T18:19:43.907Z,28.87
2022-12-16T18:22:29.499Z,30.13
2022-12-16T18:25:15.109Z,29.77
2022-12-16T18:28:01.911Z,31.73
2022-12-16T18:30:47.279Z,30.37
2022-12-16T18:33:33.011Z,29.83
2022-12-16T18:36:18.584Z,32.00
2022-12-16T18:39:03.910Z,30.93
2022-12-16T18:41:49.420Z,32.57
2022-12-16T18:44:36.136Z,30.73
2022-12-16T18:47:21.883Z,32.17
2022-12-16T18:50:07.309Z,30.93
2022-12-16T18:52:52.721Z,31.30
2022-12-16T18:55:38.314Z,30.93
2022-12-16T19:01:30.628Z,30.83
2022-12-16T19:04:16.805Z,30.87
2022-12-16T19:07:02.145Z,31.90
2022-12-16T19:09:48.317Z,32.10
2022-12-16T19:12:33.757Z,32.20
2022-12-16T19:15:19.129Z,50.90
2022-12-16T19:18:06.177Z,38.40
2022-12-16T19:20:50.709Z,36.47
2022-12-16T19:23:37.757Z,37.07
2022-12-16T19:26:23.963Z,34.40
2022-12-16T19:29:09.622Z,34.20
2022-12-16T19:31:55.945Z,32.23
2022-12-16T19:34:43.315Z,32.43
2022-12-16T19:37:28.571Z,31.07
2022-12-16T19:40:14.036Z,31.27
2022-12-16T19:42:59.403Z,32.37
2022-12-16T19:45:45.130Z,32.63
2022-12-16T19:48:30.673Z,31.70
2022-12-16T19:51:18.366Z,31.67
2022-12-16T19:54:04.120Z,31.23
2022-12-16T19:56:50.288Z,32.13
2022-12-16T19:59:36.024Z,31.87
2022-12-16T20:02:22.336Z,33.33
2022-12-16T20:05:08.306Z,32.17
2022-12-16T20:07:56.530Z,32.13
2022-12-16T20:10:42.730Z,32.43
2022-12-16T20:13:30.328Z,35.43
2022-12-16T20:16:20.481Z,30.50
2022-12-16T20:19:06.268Z,31.73
2022-12-16T20:21:56.438Z,33.57
2022-12-16T20:24:44.506Z,32.37
2022-12-16T20:27:30.345Z,31.77
2022-12-16T20:30:16.492Z,31.53
2022-12-16T20:33:05.143Z,35.60
2022-12-16T20:35:50.820Z,33.50
2022-12-16T20:38:37.021Z,31.10
2022-12-16T20:41:24.238Z,33.97
2022-12-16T20:44:10.115Z,32.43
2022-12-16T20:46:56.437Z,31.43
2022-12-16T20:49:42.047Z,31.63
2022-12-16T20:52:27.593Z,32.13
2022-12-16T20:55:12.815Z,31.77
2022-12-16T20:57:59.676Z,31.77
2022-12-16T21:00:45.461Z,30.97
2022-12-16T21:03:31.160Z,33.30
2022-12-16T21:06:16.479Z,30.73
2022-12-16T21:09:02.195Z,31.50
2022-12-16T21:11:48.332Z,31.33
2022-12-16T21:14:31.706Z,30.20
2022-12-16T21:17:17.284Z,30.57
2022-12-16T21:20:02.998Z,31.47
2022-12-16T21:22:49.055Z,31.53
2022-12-16T21:25:34.880Z,32.07
2022-12-16T21:28:16.903Z,31.70
2022-12-16T21:31:03.946Z,31.57
2022-12-16T21:34:03.947Z,30.13
2022-12-16T21:36:49.883Z,30.90
2022-12-16T21:39:35.577Z,30.57
2022-12-16T21:42:21.213Z,29.93
2022-12-16T21:45:06.825Z,31.73
2022-12-16T21:47:53.901Z,32.00
2022-12-16T21:50:41.436Z,31.13
2022-12-16T21:53:26.872Z,31.67
2022-12-16T21:56:13.575Z,32.63
2022-12-16T21:59:00.932Z,29.90
2022-12-16T22:01:46.362Z,31.77
2022-12-16T22:04:33.468Z,30.73
2022-12-16T22:07:19.222Z,31.37
2022-12-16T22:10:04.874Z,30.57
2022-12-16T22:12:52.137Z,30.40
2022-12-16T22:15:38.152Z,30.47
2022-12-16T22:18:24.029Z,29.87
2022-12-16T22:21:22.526Z,29.40
2022-12-16T22:24:08.164Z,29.90
2022-12-16T22:26:54.882Z,31.90
2022-12-16T22:29:42.008Z,30.10
2022-12-16T22:32:27.708Z,30.77
2022-12-16T22:35:13.220Z,29.43
2022-12-16T22:38:00.341Z,29.87
2022-12-16T22:40:45.738Z,30.23
2022-12-16T22:43:31.153Z,30.87
2022-12-16T22:46:17.865Z,29.33
2022-12-16T22:49:05.551Z,29.80
2022-12-16T22:51:51.881Z,29.80
2022-12-16T22:54:38.848Z,29.43
2022-12-16T22:57:24.537Z,29.70
2022-12-16T23:00:10.232Z,31.13
2022-12-16T23:02:55.797Z,29.60
2022-12-16T23:05:50.937Z,31.13
2022-12-16T23:08:39.049Z,29.60
2022-12-16T23:11:25.934Z,29.43
2022-12-16T23:14:11.517Z,29.83
2022-12-16T23:16:59.408Z,30.53
2022-12-16T23:19:45.022Z,32.33
2022-12-16T23:22:30.714Z,31.63
2022-12-16T23:25:16.174Z,30.27
2022-12-16T23:28:03.060Z,28.40
2022-12-16T23:30:48.625Z,28.93
2022-12-16T23:33:34.646Z,31.23
2022-12-16T23:36:25.724Z,28.17
2022-12-16T23:39:11.668Z,28.37
2022-12-16T23:41:57.042Z,28.53
2022-12-16T23:44:43.835Z,29.87
2022-12-16T23:47:29.286Z,30.40
2022-12-16T23:50:16.042Z,30.23
2022-12-16T23:53:01.932Z,29.87
2022-12-16T23:55:47.637Z,29.33
2022-12-16T23:58:33.168Z,30.53
